createdAt,value
2023-01-31T00:01:39.975Z,100461.66
2023-01-31T00:04:09.024Z,100434.16
2023-01-31T00:06:38.510Z,100435.69
2023-01-31T00:09:06.581Z,100440.03
2023-01-31T00:11:33.688Z,100435.91
2023-01-31T00:14:02.045Z,100442.38
2023-01-31T00:16:28.564Z,100447.41
2023-01-31T00:18:55.008Z,100444.25
2023-01-31T00:21:27.376Z,100443.22
2023-01-31T00:23:55.642Z,100441.03
2023-01-31T00:26:30.899Z,100439.91
2023-01-31T00:28:59.413Z,100431.84
2023-01-31T00:31:28.320Z,100428.31
2023-01-31T00:33:55.871Z,100431.25
2023-01-31T00:36:25.285Z,100435.72
2023-01-31T00:38:53.758Z,100432.34
2023-01-31T00:41:21.883Z,100437.81
2023-01-31T00:43:48.563Z,100444.97
2023-01-31T00:46:14.931Z,100445.59
2023-01-31T00:48:42.439Z,100444.84
2023-01-31T00:51:08.849Z,100447.72
2023-01-31T00:53:35.941Z,100458.22
2023-01-31T00:56:07.161Z,100446.03
2023-01-31T00:58:35.866Z,100449.91
2023-01-31T01:01:07.837Z,100460.00
2023-01-31T01:03:34.770Z,100455.69
2023-01-31T01:06:01.969Z,100463.94
2023-01-31T01:08:29.311Z,100458.81
2023-01-31T01:10:56.043Z,100456.72
2023-01-31T01:13:22.604Z,100462.03
2023-01-31T01:15:49.004Z,100455.88
2023-01-31T01:18:16.323Z,100464.34
2023-01-31T01:20:42.630Z,100464.34
2023-01-31T01:23:08.919Z,100445.94
2023-01-31T01:25:45.238Z,100446.06
2023-01-31T01:28:11.680Z,100462.59
2023-01-31T01:30:39.478Z,100455.47
2023-01-31T01:33:05.970Z,100459.78
2023-01-31T01:35:33.037Z,100460.47
2023-01-31T01:37:59.378Z,100465.44
2023-01-31T01:40:36.646Z,100469.91
2023-01-31T01:43:03.359Z,100479.19
2023-01-31T01:45:30.762Z,100469.69
2023-01-31T01:48:01.065Z,100468.38
2023-01-31T01:50:36.467Z,100460.03
2023-01-31T01:53:10.875Z,100457.19
2023-01-31T01:55:56.525Z,100449.28
2023-01-31T01:58:39.474Z,100459.13
2023-01-31T02:01:07.476Z,100453.59
2023-01-31T02:03:34.454Z,100456.38
2023-01-31T02:06:06.498Z,100459.75
2023-01-31T02:08:36.112Z,100451.03
2023-01-31T02:11:23.152Z,100463.72
2023-01-31T02:13:52.946Z,100453.41
2023-01-31T02:16:19.560Z,100453.09
2023-01-31T02:18:46.944Z,100452.75
2023-01-31T02:21:44.721Z,100447.41
2023-01-31T02:24:39.592Z,100461.75
2023-01-31T02:27:08.995Z,100445.91
2023-01-31T02:30:03.922Z,100447.19
2023-01-31T02:32:53.447Z,100448.19
2023-01-31T02:35:37.678Z,100448.59
2023-01-31T02:38:26.631Z,100448.34
2023-01-31T02:41:22.736Z,100455.19
2023-01-31T02:44:31.086Z,100452.53
2023-01-31T02:47:27.830Z,100443.38
2023-01-31T02:50:12.703Z,100443.72
2023-01-31T02:52:53.220Z,100453.38
2023-01-31T02:55:43.030Z,100464.75
2023-01-31T02:58:12.256Z,100453.66
2023-01-31T03:00:45.468Z,100458.03
2023-01-31T03:03:25.166Z,100466.00
2023-01-31T03:06:23.013Z,100477.03
2023-01-31T03:09:02.246Z,100473.94
2023-01-31T03:11:45.909Z,100473.59
2023-01-31T03:14:27.455Z,100478.53
2023-01-31T03:17:33.388Z,100486.56
2023-01-31T03:20:17.439Z,100480.25
2023-01-31T03:22:49.909Z,100477.03
2023-01-31T03:25:20.182Z,100479.06
2023-01-31T03:27:57.050Z,100475.66
2023-01-31T03:30:40.705Z,100480.03
2023-01-31T03:33:29.835Z,100488.72
2023-01-31T03:36:05.615Z,100478.53
2023-01-31T03:38:36.936Z,100483.69
2023-01-31T03:41:24.730Z,100480.88
2023-01-31T03:44:12.071Z,100491.69
2023-01-31T03:46:51.119Z,100489.75
2023-01-31T03:49:20.253Z,100498.72
2023-01-31T03:51:52.260Z,100493.97
2023-01-31T03:54:28.073Z,100504.97
2023-01-31T03:57:07.801Z,100494.13
2023-01-31T03:59:38.228Z,100487.28
2023-01-31T04:02:07.755Z,100488.09
2023-01-31T04:04:46.133Z,100494.81
2023-01-31T04:07:12.631Z,100487.09
2023-01-31T04:09:39.842Z,100473.31
2023-01-31T04:12:06.499Z,100472.44
2023-01-31T04:14:32.828Z,100463.13
2023-01-31T04:16:59.195Z,100467.41
2023-01-31T04:19:25.529Z,100466.03
2023-01-31T04:21:51.835Z,100460.00
2023-01-31T04:24:18.140Z,100459.78
2023-01-31T04:26:44.493Z,100457.97
2023-01-31T04:29:10.946Z,100462.63
2023-01-31T04:31:37.779Z,100455.81
2023-01-31T04:34:04.118Z,100451.03
2023-01-31T04:36:30.425Z,100454.56
2023-01-31T04:38:56.738Z,100453.50
2023-01-31T04:41:23.078Z,100457.66
2023-01-31T04:43:49.379Z,100451.78
2023-01-31T04:46:15.725Z,100442.84
2023-01-31T04:48:42.136Z,100443.78
2023-01-31T04:51:08.614Z,100452.31
2023-01-31T04:53:35.079Z,100451.41
2023-01-31T04:56:02.028Z,100458.25
2023-01-31T04:58:28.509Z,100462.88
2023-01-31T05:00:54.863Z,100453.28
2023-01-31T05:03:21.213Z,100447.97
2023-01-31T05:05:48.972Z,100451.59
2023-01-31T05:08:15.359Z,100461.94
2023-01-31T05:10:42.878Z,100450.06
2023-01-31T05:13:10.297Z,100458.53
2023-01-31T05:15:36.638Z,100453.28
2023-01-31T05:18:03.259Z,100447.03
2023-01-31T05:20:36.528Z,100448.63
2023-01-31T05:23:03.096Z,100446.56
2023-01-31T05:25:31.520Z,100448.97
2023-01-31T05:27:58.634Z,100442.13
2023-01-31T05:30:25.260Z,100439.91
2023-01-31T05:32:51.916Z,100448.69
2023-01-31T05:35:19.398Z,100434.41
2023-01-31T05:37:46.118Z,100441.31
2023-01-31T05:40:14.610Z,100436.97
2023-01-31T05:42:41.332Z,100442.88
2023-01-31T05:45:10.233Z,100421.94
2023-01-31T05:47:36.672Z,100439.63
2023-01-31T05:50:03.983Z,100440.22
2023-01-31T05:52:30.305Z,100429.59
2023-01-31T05:54:56.824Z,100430.38
2023-01-31T05:57:23.132Z,100437.72
2023-01-31T05:59:49.443Z,100437.06
2023-01-31T06:02:15.892Z,100430.78
2023-01-31T06:04:42.257Z,100441.47
2023-01-31T06:07:08.559Z,100433.81
2023-01-31T06:09:34.913Z,100435.31
2023-01-31T06:12:01.218Z,100437.72
2023-01-31T06:14:27.533Z,100444.84
2023-01-31T06:16:53.962Z,100448.25
2023-01-31T06:19:25.077Z,100452.59
2023-01-31T06:21:51.794Z,100449.88
2023-01-31T06:24:18.159Z,100461.56
2023-01-31T06:26:44.459Z,100449.00
2023-01-31T06:29:10.905Z,100455.09
2023-01-31T06:31:37.331Z,100448.06
2023-01-31T06:34:03.686Z,100463.94
2023-01-31T06:36:33.957Z,100460.31
2023-01-31T06:39:00.330Z,100444.06
2023-01-31T06:41:26.637Z,100465.75
2023-01-31T06:43:52.922Z,100457.28
2023-01-31T06:46:19.266Z,100457.44
2023-01-31T06:48:45.617Z,100455.63
2023-01-31T06:51:11.920Z,100458.72
2023-01-31T06:53:38.213Z,100466.94
2023-01-31T06:56:04.879Z,100471.41
2023-01-31T06:58:31.499Z,100467.88
2023-01-31T07:00:58.659Z,100467.69
2023-01-31T07:03:24.951Z,100475.97
2023-01-31T07:05:51.243Z,100458.81
2023-01-31T07:08:17.557Z,100462.16
2023-01-31T07:10:43.913Z,100465.44
2023-01-31T07:13:10.324Z,100470.47
2023-01-31T07:15:36.681Z,100472.81
2023-01-31T07:18:03.101Z,100469.19
2023-01-31T07:20:29.692Z,100471.53
2023-01-31T07:22:57.184Z,100474.50
2023-01-31T07:25:24.426Z,100474.88
2023-01-31T07:27:51.551Z,100463.44
2023-01-31T07:30:17.977Z,100467.03
2023-01-31T07:32:44.442Z,100454.81
2023-01-31T07:35:11.041Z,100456.50
2023-01-31T07:37:39.255Z,100458.94
2023-01-31T07:40:06.361Z,100448.34
2023-01-31T07:42:33.400Z,100457.00
2023-01-31T07:45:06.965Z,100449.63
2023-01-31T07:47:43.293Z,100448.44
2023-01-31T07:50:10.478Z,100448.38
2023-01-31T07:52:36.834Z,100465.81
2023-01-31T07:55:03.203Z,100439.75
2023-01-31T07:57:32.074Z,100443.78
2023-01-31T07:59:58.466Z,100459.63
2023-01-31T08:02:43.530Z,100448.06
2023-01-31T08:05:11.299Z,100448.81
2023-01-31T08:07:37.768Z,100450.13
2023-01-31T08:10:04.388Z,100454.13
2023-01-31T08:12:30.823Z,100461.06
2023-01-31T08:14:57.131Z,100463.41
2023-01-31T08:17:23.500Z,100454.19
2023-01-31T08:19:49.857Z,100449.63
2023-01-31T08:22:16.155Z,100454.72
2023-01-31T08:24:42.516Z,100452.69
2023-01-31T08:27:08.872Z,100431.66
2023-01-31T08:29:36.142Z,100436.94
2023-01-31T08:32:03.124Z,100418.25
2023-01-31T08:34:29.643Z,100414.72
2023-01-31T08:36:56.009Z,100418.41
2023-01-31T08:39:22.365Z,100407.16
2023-01-31T08:41:48.670Z,100403.22
2023-01-31T08:44:15.178Z,100414.34
2023-01-31T08:46:42.379Z,100427.13
2023-01-31T08:49:10.078Z,100429.03
2023-01-31T08:51:36.460Z,100424.66
2023-01-31T08:54:02.998Z,100415.66
2023-01-31T08:56:29.414Z,100406.06
2023-01-31T08:58:57.264Z,100420.88
2023-01-31T09:01:23.611Z,100424.81
2023-01-31T09:03:50.803Z,100454.97
2023-01-31T09:06:22.382Z,100441.81
2023-01-31T09:08:48.919Z,100450.81
2023-01-31T09:11:18.688Z,100449.88
2023-01-31T09:13:47.036Z,100441.22
2023-01-31T09:16:14.191Z,100460.25
2023-01-31T09:18:42.215Z,100450.97
2023-01-31T09:21:20.456Z,100428.31
2023-01-31T09:23:47.985Z,100421.56
2023-01-31T09:26:15.909Z,100425.63
2023-01-31T09:28:43.538Z,100411.41
2023-01-31T09:31:12.708Z,100403.09
2023-01-31T09:33:39.614Z,100405.41
2023-01-31T09:36:14.235Z,100401.69
2023-01-31T09:38:41.064Z,100401.53
2023-01-31T09:41:28.494Z,100405.78
2023-01-31T09:44:23.618Z,100399.94
2023-01-31T09:46:55.443Z,100403.72
2023-01-31T09:49:42.782Z,100414.25
2023-01-31T09:52:10.415Z,100419.69
2023-01-31T09:54:39.687Z,100413.66
2023-01-31T09:57:12.028Z,100417.84
2023-01-31T09:59:42.690Z,100418.09
2023-01-31T10:02:36.526Z,100415.47
2023-01-31T10:05:29.841Z,100386.06
2023-01-31T10:08:03.858Z,100398.03
2023-01-31T10:10:39.583Z,100413.75
2023-01-31T10:13:17.054Z,100417.34
2023-01-31T10:15:49.240Z,100420.41
2023-01-31T10:18:29.276Z,100401.88
2023-01-31T10:21:03.572Z,100408.91
2023-01-31T10:23:49.992Z,100394.56
2023-01-31T10:26:23.614Z,100391.81
2023-01-31T10:29:13.852Z,100379.22
2023-01-31T10:31:48.965Z,100380.69
2023-01-31T10:34:41.117Z,100393.78
2023-01-31T10:37:30.181Z,100394.03
2023-01-31T10:40:17.044Z,100395.34
2023-01-31T10:42:52.512Z,100383.63
2023-01-31T10:45:22.248Z,100370.50
2023-01-31T10:47:56.019Z,100374.16
2023-01-31T10:50:46.321Z,100386.72
2023-01-31T10:53:36.171Z,100375.31
2023-01-31T10:56:10.770Z,100357.66
2023-01-31T10:58:38.034Z,100358.38
2023-01-31T11:01:08.321Z,100357.53
2023-01-31T11:03:35.147Z,100350.41
2023-01-31T11:06:01.572Z,100340.13
2023-01-31T11:08:33.368Z,100340.59
2023-01-31T11:11:07.888Z,100351.97
2023-01-31T11:13:34.359Z,100334.59
2023-01-31T11:16:03.046Z,100341.69
2023-01-31T11:18:43.588Z,100324.88
2023-01-31T11:21:17.015Z,100322.69
2023-01-31T11:23:44.834Z,100320.34
2023-01-31T11:26:12.343Z,100318.19
2023-01-31T11:28:40.223Z,100310.28
2023-01-31T11:31:16.165Z,100308.41
2023-01-31T11:33:57.355Z,100295.47
2023-01-31T11:36:24.248Z,100293.19
2023-01-31T11:38:51.313Z,100281.31
2023-01-31T11:41:36.686Z,100265.22
2023-01-31T11:44:16.046Z,100261.69
2023-01-31T11:46:48.511Z,100281.31
2023-01-31T11:49:40.584Z,100285.44
2023-01-31T11:52:16.498Z,100284.81
2023-01-31T11:54:49.333Z,100272.28
2023-01-31T11:57:30.647Z,100244.53
2023-01-31T11:59:58.918Z,100220.50
2023-01-31T12:02:40.453Z,100231.56
2023-01-31T12:05:17.952Z,100236.41
2023-01-31T12:07:47.740Z,100220.81
2023-01-31T12:10:42.136Z,100221.44
2023-01-31T12:13:18.901Z,100217.66
2023-01-31T12:15:55.724Z,100207.94
2023-01-31T12:18:46.361Z,100198.50
2023-01-31T12:21:17.240Z,100193.59
2023-01-31T12:24:10.958Z,100188.53
2023-01-31T12:26:56.864Z,100182.03
2023-01-31T12:29:47.975Z,100180.28
2023-01-31T12:32:35.008Z,100159.53
2023-01-31T12:35:26.722Z,100162.34
2023-01-31T12:38:13.012Z,100181.63
2023-01-31T12:41:00.839Z,100181.06
2023-01-31T12:43:57.317Z,100170.84
2023-01-31T12:46:45.510Z,100149.06
2023-01-31T12:49:48.825Z,100161.28
2023-01-31T12:52:44.811Z,100135.88
2023-01-31T12:55:35.796Z,100137.72
2023-01-31T12:58:31.629Z,100127.63
2023-01-31T13:01:04.456Z,100122.84
2023-01-31T13:03:43.579Z,100111.66
2023-01-31T13:06:15.484Z,100110.31
2023-01-31T13:09:08.287Z,100104.84
2023-01-31T13:11:43.993Z,100118.28
2023-01-31T13:14:19.778Z,100125.91
2023-01-31T13:16:49.249Z,100103.88
2023-01-31T13:19:31.941Z,100095.84
2023-01-31T13:22:03.611Z,100116.19
2023-01-31T13:24:37.560Z,100113.56
2023-01-31T13:27:19.945Z,100109.41
2023-01-31T13:29:52.941Z,100113.72
2023-01-31T13:32:28.335Z,100110.03
2023-01-31T13:35:02.716Z,100133.28
2023-01-31T13:37:33.079Z,100126.19
2023-01-31T13:40:21.392Z,100122.03
2023-01-31T13:42:48.888Z,100121.44
2023-01-31T13:45:27.032Z,100117.81
2023-01-31T13:48:00.458Z,100100.28
2023-01-31T13:50:42.205Z,100120.09
2023-01-31T13:53:21.730Z,100128.06
2023-01-31T13:55:50.896Z,100122.25
2023-01-31T13:58:17.185Z,100130.03
2023-01-31T14:00:46.826Z,100126.03
2023-01-31T14:03:19.191Z,100120.03
2023-01-31T14:05:47.549Z,100118.97
2023-01-31T14:08:26.161Z,100118.28
2023-01-31T14:10:54.046Z,100114.53
2023-01-31T14:13:39.192Z,100109.06
2023-01-31T14:16:34.202Z,100113.03
2023-01-31T14:19:00.681Z,100115.50
2023-01-31T14:21:29.724Z,100115.69
2023-01-31T14:23:57.600Z,100111.19
2023-01-31T14:26:42.146Z,100115.34
2023-01-31T14:29:17.934Z,100103.88
2023-01-31T14:31:46.219Z,100106.63
2023-01-31T14:34:32.601Z,100106.72
2023-01-31T14:36:58.864Z,100098.13
2023-01-31T14:39:44.576Z,100095.28
2023-01-31T14:42:26.661Z,100088.75
2023-01-31T14:45:20.725Z,100099.00
2023-01-31T14:48:14.202Z,100101.06
2023-01-31T14:50:59.097Z,100088.44
2023-01-31T14:54:10.121Z,100083.81
2023-01-31T14:56:45.388Z,100083.03
2023-01-31T14:59:54.954Z,100083.97
2023-01-31T15:02:37.029Z,100087.22
2023-01-31T15:05:11.712Z,100077.16
2023-01-31T15:07:57.483Z,100080.28
2023-01-31T15:10:55.013Z,100077.97
2023-01-31T15:13:50.299Z,100097.38
2023-01-31T15:16:43.639Z,100098.25
2023-01-31T15:19:19.265Z,100089.91
2023-01-31T15:21:50.471Z,100083.13
2023-01-31T15:24:18.911Z,100086.69
2023-01-31T15:26:46.877Z,100091.84
2023-01-31T15:29:23.658Z,100091.69
2023-01-31T15:31:53.793Z,100109.25
2023-01-31T15:34:25.507Z,100088.75
2023-01-31T15:37:05.689Z,100088.06
2023-01-31T15:39:38.454Z,100078.09
2023-01-31T15:42:25.481Z,100089.34
2023-01-31T15:45:13.341Z,100070.47
2023-01-31T15:47:39.690Z,100090.44
2023-01-31T15:50:14.705Z,100083.50
2023-01-31T15:52:41.055Z,100088.56
2023-01-31T15:55:11.292Z,100094.69
2023-01-31T15:57:42.785Z,100102.53
2023-01-31T16:00:19.054Z,100101.84
2023-01-31T16:02:46.504Z,100106.00
2023-01-31T16:05:22.181Z,100095.47
2023-01-31T16:07:49.459Z,100110.19
2023-01-31T16:10:16.488Z,100103.69
2023-01-31T16:12:47.788Z,100095.28
2023-01-31T16:15:23.905Z,100107.31
2023-01-31T16:17:51.833Z,100103.78
2023-01-31T16:20:36.555Z,100122.81
2023-01-31T16:23:03.506Z,100119.81
2023-01-31T16:25:34.685Z,100113.84
2023-01-31T16:28:04.169Z,100113.94
2023-01-31T16:30:31.196Z,100107.94
2023-01-31T16:32:57.609Z,100108.56
2023-01-31T16:35:26.654Z,100112.16
2023-01-31T16:38:16.478Z,100104.09
2023-01-31T16:41:07.778Z,100118.13
2023-01-31T16:43:35.102Z,100118.50
2023-01-31T16:46:03.947Z,100112.34
2023-01-31T16:48:38.480Z,100124.78
2023-01-31T16:51:25.409Z,100129.75
2023-01-31T16:54:18.283Z,100116.72
2023-01-31T16:56:46.531Z,100112.75
2023-01-31T16:59:34.751Z,100108.94
2023-01-31T17:02:12.217Z,100113.41
2023-01-31T17:04:39.721Z,100114.03
2023-01-31T17:07:13.512Z,100107.38
2023-01-31T17:09:39.944Z,100110.31
2023-01-31T17:12:06.263Z,100109.38
2023-01-31T17:14:34.388Z,100098.19
2023-01-31T17:17:04.741Z,100116.66
2023-01-31T17:19:33.609Z,100106.53
2023-01-31T17:22:00.177Z,100114.09
2023-01-31T17:24:26.607Z,100123.66
2023-01-31T17:26:54.063Z,100123.97
2023-01-31T17:29:21.209Z,100121.63
2023-01-31T17:31:47.582Z,100127.41
2023-01-31T17:34:15.254Z,100132.53
2023-01-31T17:36:43.343Z,100118.31
2023-01-31T17:39:09.708Z,100127.78
2023-01-31T17:41:37.376Z,100124.59
2023-01-31T17:44:06.298Z,100122.63
2023-01-31T17:46:33.104Z,100120.69
2023-01-31T17:48:59.436Z,100118.31
2023-01-31T17:51:25.743Z,100119.13
2023-01-31T17:53:52.197Z,100125.66
2023-01-31T17:56:18.735Z,100127.22
2023-01-31T17:58:45.484Z,100113.75
2023-01-31T18:01:13.804Z,100119.69
2023-01-31T18:03:41.108Z,100138.13
2023-01-31T18:06:08.795Z,100131.88
2023-01-31T18:08:35.663Z,100130.13
2023-01-31T18:11:04.404Z,100128.28
2023-01-31T18:13:30.871Z,100141.44
2023-01-31T18:16:05.186Z,100145.69
2023-01-31T18:18:31.703Z,100138.91
2023-01-31T18:20:58.175Z,100142.06
2023-01-31T18:23:24.822Z,100140.28
2023-01-31T18:25:51.215Z,100142.91
2023-01-31T18:28:17.544Z,100156.44
2023-01-31T18:30:43.882Z,100163.38
2023-01-31T18:33:10.287Z,100157.34
2023-01-31T18:35:36.597Z,100142.88
2023-01-31T18:38:06.529Z,100150.56
2023-01-31T18:40:33.542Z,100154.19
2023-01-31T18:42:59.980Z,100143.28
2023-01-31T18:45:26.345Z,100141.31
2023-01-31T18:47:52.677Z,100142.06
2023-01-31T18:50:19.109Z,100148.16
2023-01-31T18:52:47.187Z,100146.09
2023-01-31T18:55:13.502Z,100150.16
2023-01-31T18:57:39.804Z,100138.22
2023-01-31T19:00:06.676Z,100136.53
2023-01-31T19:02:33.000Z,100141.72
2023-01-31T19:04:59.368Z,100122.19
2023-01-31T19:07:25.680Z,100132.97
2023-01-31T19:09:52.049Z,100129.44
2023-01-31T19:12:18.463Z,100140.84
2023-01-31T19:14:46.839Z,100141.53
2023-01-31T19:17:15.295Z,100128.81
2023-01-31T19:19:41.615Z,100149.22
2023-01-31T19:22:07.971Z,100146.72
2023-01-31T19:24:34.289Z,100144.88
2023-01-31T19:27:00.603Z,100144.34
2023-01-31T19:29:27.979Z,100146.72
2023-01-31T19:31:54.883Z,100126.91
2023-01-31T19:34:21.215Z,100118.59
2023-01-31T19:36:48.888Z,100124.06
2023-01-31T19:39:15.246Z,100135.31
2023-01-31T19:41:42.330Z,100134.00
2023-01-31T19:44:08.942Z,100128.66
2023-01-31T19:46:36.838Z,100134.22
2023-01-31T19:49:03.802Z,100136.16
2023-01-31T19:51:30.457Z,100120.81
2023-01-31T19:54:01.076Z,100119.28
2023-01-31T19:56:27.867Z,100113.09
2023-01-31T19:58:54.383Z,100126.53
2023-01-31T20:01:20.785Z,100123.19
2023-01-31T20:03:47.315Z,100114.88
2023-01-31T20:06:16.400Z,100127.75
2023-01-31T20:08:43.348Z,100128.44
2023-01-31T20:11:10.700Z,100149.56
2023-01-31T20:13:37.081Z,100156.91
2023-01-31T20:16:09.724Z,100169.09
2023-01-31T20:18:37.356Z,100144.88
2023-01-31T20:21:04.295Z,100157.69
2023-01-31T20:23:30.728Z,100150.97
2023-01-31T20:25:58.179Z,100150.13
2023-01-31T20:28:26.185Z,100162.38
2023-01-31T20:30:53.120Z,100153.72
2023-01-31T20:33:19.998Z,100154.81
2023-01-31T20:35:46.840Z,100163.16
2023-01-31T20:38:15.376Z,100170.19
2023-01-31T20:40:41.715Z,100177.88
2023-01-31T20:43:08.096Z,100174.47
2023-01-31T20:45:35.201Z,100171.56
2023-01-31T20:48:01.593Z,100182.97
2023-01-31T20:50:28.132Z,100185.13
2023-01-31T20:52:55.692Z,100182.78
2023-01-31T20:55:23.434Z,100180.03
2023-01-31T20:57:50.957Z,100192.13
2023-01-31T21:00:19.674Z,100202.59
2023-01-31T21:02:46.555Z,100187.25
2023-01-31T21:05:13.141Z,100192.22
2023-01-31T21:07:39.778Z,100193.00
2023-01-31T21:10:07.156Z,100193.47
2023-01-31T21:12:33.507Z,100195.31
2023-01-31T21:15:00.003Z,100193.59
2023-01-31T21:17:39.172Z,100185.38
2023-01-31T21:20:07.531Z,100181.41
2023-01-31T21:22:34.215Z,100183.56
2023-01-31T21:25:00.550Z,100181.72
2023-01-31T21:27:26.925Z,100172.16
2023-01-31T21:29:53.238Z,100154.81
2023-01-31T21:32:19.587Z,100158.75
2023-01-31T21:34:45.878Z,100168.47
2023-01-31T21:37:12.242Z,100160.91
2023-01-31T21:39:38.562Z,100146.31
2023-01-31T21:42:19.131Z,100148.25
2023-01-31T21:44:47.322Z,100150.72
2023-01-31T21:47:15.346Z,100160.25
2023-01-31T21:49:42.135Z,100156.53
2023-01-31T21:52:09.714Z,100158.50
2023-01-31T21:54:36.390Z,100149.72
2023-01-31T21:57:02.847Z,100139.50
2023-01-31T21:59:29.190Z,100140.00
2023-01-31T22:01:55.644Z,100133.44
2023-01-31T22:04:23.198Z,100146.88
2023-01-31T22:06:50.448Z,100141.72
2023-01-31T22:09:17.584Z,100134.00
2023-01-31T22:11:47.281Z,100128.16
2023-01-31T22:14:15.718Z,100126.72
2023-01-31T22:16:42.888Z,100124.13
2023-01-31T22:19:14.234Z,100112.16
2023-01-31T22:21:41.941Z,100115.13
2023-01-31T22:24:11.366Z,100115.41
2023-01-31T22:26:43.423Z,100111.97
2023-01-31T22:29:12.659Z,100120.19
2023-01-31T22:31:39.358Z,100107.69
2023-01-31T22:34:07.028Z,100118.88
2023-01-31T22:36:34.377Z,100117.56
2023-01-31T22:39:01.073Z,100114.09
2023-01-31T22:41:27.828Z,100107.09
2023-01-31T22:43:54.580Z,100116.94
2023-01-31T22:46:23.897Z,100110.00
2023-01-31T22:48:51.099Z,100121.91
2023-01-31T22:51:20.225Z,100117.25
2023-01-31T22:53:47.283Z,100099.81
2023-01-31T22:56:23.119Z,100090.72
2023-01-31T22:58:54.050Z,100093.34
2023-01-31T23:01:24.136Z,100088.25
2023-01-31T23:03:50.520Z,100083.75
2023-01-31T23:06:18.014Z,100079.56
2023-01-31T23:08:44.928Z,100068.53
2023-01-31T23:11:14.328Z,100077.78
2023-01-31T23:13:41.592Z,100077.41
2023-01-31T23:16:09.628Z,100082.78
2023-01-31T23:18:36.273Z,100078.19
2023-01-31T23:21:11.160Z,100087.22
2023-01-31T23:23:37.721Z,100079.78
2023-01-31T23:26:05.509Z,100083.13
2023-01-31T23:28:32.061Z,100078.72
2023-01-31T23:30:58.427Z,100078.03
2023-01-31T23:33:24.837Z,100072.25
2023-01-31T23:35:51.573Z,100053.69
2023-01-31T23:38:17.941Z,100055.44
2023-01-31T23:40:44.270Z,100056.38
2023-01-31T23:43:10.589Z,100062.72
2023-01-31T23:45:36.911Z,100054.75
2023-01-31T23:48:03.373Z,100060.78
2023-01-31T23:50:29.691Z,100065.09
2023-01-31T23:52:55.999Z,100061.59
2023-01-31T23:55:22.679Z,100052.03
2023-01-31T23:57:50.021Z,100051.75
